createdAt,value
2022-11-10T00:02:05.371Z,10.98
2022-11-10T00:04:50.440Z,10.73
2022-11-10T00:07:36.023Z,11.15
2022-11-10T00:10:21.343Z,11.24
2022-11-10T00:13:06.407Z,11.12
2022-11-10T00:16:10.548Z,11.33
2022-11-10T00:18:55.874Z,11.43
2022-11-10T00:21:41.360Z,11.47
2022-11-10T00:24:27.371Z,11.54
2022-11-10T00:27:14.671Z,11.65
2022-11-10T00:30:00.313Z,11.65
2022-11-10T00:32:48.147Z,11.69
2022-11-10T00:35:33.444Z,11.53
2022-11-10T00:38:18.841Z,11.60
2022-11-10T00:41:04.184Z,11.59
2022-11-10T00:43:49.714Z,11.52
2022-11-10T00:46:35.115Z,11.56
2022-11-10T00:49:20.223Z,11.63
2022-11-10T00:52:05.414Z,11.60
2022-11-10T00:54:50.460Z,11.46
2022-11-10T00:57:35.575Z,11.37
2022-11-10T01:00:20.971Z,10.95
2022-11-10T01:03:07.032Z,11.02
2022-11-10T01:05:52.467Z,10.95
2022-11-10T01:08:38.478Z,11.02
2022-11-10T01:11:26.976Z,10.94
2022-11-10T01:14:12.271Z,10.91
2022-11-10T01:16:57.389Z,10.82
2022-11-10T01:19:42.598Z,10.70
2022-11-10T01:22:27.781Z,10.55
2022-11-10T01:25:13.090Z,10.44
2022-11-10T01:27:58.687Z,10.30
2022-11-10T01:30:43.849Z,10.32
2022-11-10T01:33:29.707Z,10.07
2022-11-10T01:36:15.282Z,10.05
2022-11-10T01:39:00.905Z,10.09
2022-11-10T01:41:46.386Z,10.07
2022-11-10T01:44:31.834Z,9.96
2022-11-10T01:47:17.321Z,9.84
2022-11-10T01:50:02.716Z,9.67
2022-11-10T01:52:52.136Z,9.54
2022-11-10T01:55:41.367Z,9.44
2022-11-10T01:58:32.871Z,9.38
2022-11-10T02:01:18.585Z,9.28
2022-11-10T02:04:07.338Z,9.14
2022-11-10T02:06:54.468Z,9.02
2022-11-10T02:09:40.103Z,9.07
2022-11-10T02:12:37.571Z,8.68
2022-11-10T02:15:24.648Z,8.86
2022-11-10T02:18:09.647Z,8.72
2022-11-10T02:20:54.972Z,8.82
2022-11-10T02:23:39.995Z,8.88
2022-11-10T02:26:30.146Z,8.86
2022-11-10T02:29:15.607Z,8.80
2022-11-10T02:32:00.635Z,8.65
2022-11-10T02:34:45.733Z,8.52
2022-11-10T02:37:30.860Z,8.53
2022-11-10T02:40:16.221Z,8.40
2022-11-10T02:43:04.176Z,8.42
2022-11-10T02:45:49.486Z,8.39
2022-11-10T02:48:34.715Z,8.30
2022-11-10T02:51:20.028Z,8.11
2022-11-10T02:54:06.205Z,8.20
2022-11-10T02:56:51.504Z,8.01
2022-11-10T02:59:36.787Z,7.97
2022-11-10T03:02:22.094Z,7.98
2022-11-10T03:05:07.419Z,7.73
2022-11-10T03:07:55.406Z,8.09
2022-11-10T03:10:40.628Z,7.90
2022-11-10T03:13:35.591Z,7.74
2022-11-10T03:16:31.580Z,8.03
2022-11-10T03:19:16.806Z,8.01
2022-11-10T03:22:02.106Z,7.84
2022-11-10T03:24:47.171Z,7.89
2022-11-10T03:27:32.620Z,7.78
2022-11-10T03:30:17.668Z,7.68
2022-11-10T03:33:03.175Z,7.73
2022-11-10T03:35:48.613Z,7.77
2022-11-10T03:38:33.933Z,7.31
2022-11-10T03:41:20.521Z,7.82
2022-11-10T03:44:06.304Z,7.77
2022-11-10T03:46:52.015Z,7.73
2022-11-10T03:49:37.397Z,7.78
2022-11-10T03:52:22.445Z,7.73
2022-11-10T03:55:09.595Z,7.64
2022-11-10T03:57:54.873Z,7.42
2022-11-10T04:00:40.099Z,7.53
2022-11-10T04:03:25.793Z,7.42
2022-11-10T04:06:30.458Z,7.44
2022-11-10T04:09:15.931Z,7.34
2022-11-10T04:12:24.657Z,7.28
2022-11-10T04:15:30.327Z,7.21
2022-11-10T04:18:21.657Z,7.25
2022-11-10T04:21:06.858Z,7.29
2022-11-10T04:23:52.240Z,7.31
2022-11-10T04:26:38.829Z,7.06
2022-11-10T04:29:23.750Z,7.10
2022-11-10T04:32:08.866Z,7.06
2022-11-10T04:34:53.917Z,6.88
2022-11-10T04:37:39.090Z,7.05
2022-11-10T04:40:24.528Z,6.64
2022-11-10T04:43:09.653Z,7.09
2022-11-10T04:45:55.662Z,6.98
2022-11-10T04:48:41.039Z,6.96
2022-11-10T04:51:32.139Z,7.08
2022-11-10T04:54:17.551Z,7.10
2022-11-10T04:57:02.883Z,6.97
2022-11-10T04:59:48.353Z,7.05
2022-11-10T05:02:38.303Z,6.92
2022-11-10T05:05:25.106Z,6.97
2022-11-10T05:08:10.556Z,6.90
2022-11-10T05:10:55.989Z,6.87
2022-11-10T05:13:42.239Z,6.89
2022-11-10T05:16:27.576Z,6.73
2022-11-10T05:19:13.111Z,6.80
2022-11-10T05:21:58.479Z,6.37
2022-11-10T05:24:43.662Z,6.52
2022-11-10T05:27:29.925Z,6.72
2022-11-10T05:30:15.431Z,6.65
2022-11-10T05:33:01.354Z,6.74
2022-11-10T05:35:49.054Z,6.71
2022-11-10T05:38:37.730Z,6.73
2022-11-10T05:41:25.695Z,6.49
2022-11-10T05:44:10.747Z,6.64
2022-11-10T05:46:55.759Z,6.10
2022-11-10T05:49:40.735Z,6.48
2022-11-10T05:52:25.979Z,6.37
2022-11-10T05:55:12.437Z,6.43
2022-11-10T05:57:57.858Z,6.51
2022-11-10T06:00:43.521Z,6.52
2022-11-10T06:03:28.952Z,6.48
2022-11-10T06:06:14.408Z,6.51
2022-11-10T06:08:59.713Z,6.48
2022-11-10T06:11:45.030Z,6.38
2022-11-10T06:14:30.508Z,6.04
2022-11-10T06:17:15.760Z,6.42
2022-11-10T06:20:01.138Z,6.38
2022-11-10T06:23:07.855Z,6.42
2022-11-10T06:25:53.258Z,6.60
2022-11-10T06:28:38.520Z,6.96
2022-11-10T06:31:23.784Z,7.00
2022-11-10T06:34:09.085Z,6.85
2022-11-10T06:36:54.370Z,7.14
2022-11-10T06:39:39.727Z,7.16
2022-11-10T06:42:24.969Z,7.28
2022-11-10T06:45:10.297Z,7.38
2022-11-10T06:48:03.276Z,7.34
2022-11-10T06:50:48.546Z,7.41
2022-11-10T06:53:34.492Z,7.43
2022-11-10T06:56:19.767Z,7.58
2022-11-10T06:59:04.928Z,7.59
2022-11-10T07:01:50.501Z,7.49
2022-11-10T07:04:35.750Z,7.40
2022-11-10T07:07:21.216Z,7.36
2022-11-10T07:10:08.961Z,7.23
2022-11-10T07:13:02.347Z,7.48
2022-11-10T07:15:48.082Z,7.42
2022-11-10T07:18:34.203Z,7.60
2022-11-10T07:21:19.470Z,7.48
2022-11-10T07:24:04.770Z,7.34
2022-11-10T07:26:50.218Z,7.01
2022-11-10T07:29:35.406Z,7.01
2022-11-10T07:32:20.497Z,6.89
2022-11-10T07:35:05.591Z,6.94
2022-11-10T07:37:51.120Z,7.08
2022-11-10T07:40:36.990Z,7.20
2022-11-10T07:43:24.287Z,7.27
2022-11-10T07:46:10.344Z,7.33
2022-11-10T07:48:55.634Z,7.47
2022-11-10T07:51:42.766Z,7.62
2022-11-10T07:54:28.236Z,7.98
2022-11-10T07:57:13.470Z,8.26
2022-11-10T07:59:58.673Z,8.50
2022-11-10T08:02:43.798Z,8.85
2022-11-10T08:05:28.879Z,9.15
2022-11-10T08:08:14.533Z,9.40
2022-11-10T08:10:59.967Z,9.87
2022-11-10T08:13:45.019Z,10.14
2022-11-10T08:16:30.059Z,10.92
2022-11-10T08:19:15.357Z,11.88
2022-11-10T08:22:00.888Z,12.22
2022-11-10T08:24:46.006Z,12.20
2022-11-10T08:27:31.420Z,12.29
2022-11-10T08:30:16.655Z,12.33
2022-11-10T08:33:03.030Z,12.33
2022-11-10T08:35:50.292Z,12.53
2022-11-10T08:38:35.775Z,12.58
2022-11-10T08:41:21.195Z,12.56
2022-11-10T08:44:10.723Z,12.67
2022-11-10T08:46:56.380Z,12.60
2022-11-10T08:49:41.750Z,12.38
2022-11-10T08:52:26.729Z,12.62
2022-11-10T08:55:11.862Z,12.58
2022-11-10T08:58:01.712Z,12.63
2022-11-10T09:00:47.241Z,12.92
2022-11-10T09:03:32.753Z,13.19
2022-11-10T09:06:18.241Z,13.41
2022-11-10T09:09:03.811Z,13.42
2022-11-10T09:11:48.973Z,13.08
2022-11-10T09:14:34.038Z,13.09
2022-11-10T09:17:19.229Z,13.15
2022-11-10T09:20:06.216Z,13.29
2022-11-10T09:22:51.596Z,13.71
2022-11-10T09:25:38.060Z,13.81
2022-11-10T09:28:23.823Z,14.13
2022-11-10T09:31:09.264Z,14.38
2022-11-10T09:33:54.687Z,14.46
2022-11-10T09:36:40.758Z,14.38
2022-11-10T09:39:26.216Z,14.44
2022-11-10T09:42:34.337Z,14.28
2022-11-10T09:45:45.906Z,14.31
2022-11-10T09:48:37.613Z,14.33
2022-11-10T09:51:31.531Z,14.70
2022-11-10T09:54:22.388Z,14.78
2022-11-10T09:57:13.039Z,13.90
2022-11-10T09:59:58.438Z,13.42
2022-11-10T10:02:56.138Z,13.32
2022-11-10T10:06:07.148Z,13.57
2022-11-10T10:09:11.788Z,13.45
2022-11-10T10:12:17.585Z,14.25
2022-11-10T10:15:15.216Z,14.52
2022-11-10T10:18:25.106Z,14.54
2022-11-10T10:21:22.669Z,14.85
2022-11-10T10:24:21.410Z,15.05
2022-11-10T10:27:15.545Z,14.99
2022-11-10T10:30:01.168Z,14.65
2022-11-10T10:32:46.554Z,15.01
2022-11-10T10:35:37.681Z,15.16
2022-11-10T10:38:32.696Z,15.38
2022-11-10T10:41:25.344Z,15.76
2022-11-10T10:44:16.126Z,15.81
2022-11-10T10:47:02.873Z,15.71
2022-11-10T10:49:48.395Z,15.65
2022-11-10T10:52:33.609Z,15.87
2022-11-10T10:55:18.703Z,15.69
2022-11-10T10:58:24.029Z,15.94
2022-11-10T11:01:15.586Z,15.64
2022-11-10T11:04:06.159Z,15.70
2022-11-10T11:07:05.997Z,16.03
2022-11-10T11:09:51.259Z,15.88
2022-11-10T11:12:36.781Z,16.21
2022-11-10T11:15:26.628Z,16.16
2022-11-10T11:18:17.435Z,16.41
2022-11-10T11:21:34.893Z,16.56
2022-11-10T11:25:00.988Z,16.41
2022-11-10T11:28:07.671Z,16.35
2022-11-10T11:31:27.439Z,15.97
2022-11-10T11:34:32.557Z,15.38
2022-11-10T11:37:33.889Z,15.10
2022-11-10T11:40:27.259Z,14.39
2022-11-10T11:43:31.261Z,14.46
2022-11-10T11:46:44.980Z,14.52
2022-11-10T11:49:43.210Z,15.08
2022-11-10T11:52:36.094Z,15.07
2022-11-10T11:55:32.109Z,15.22
2022-11-10T11:58:25.375Z,14.59
2022-11-10T12:01:30.017Z,15.28
2022-11-10T12:04:24.200Z,16.01
2022-11-10T12:07:52.812Z,16.56
2022-11-10T12:11:07.235Z,17.03
2022-11-10T12:14:11.332Z,16.43
2022-11-10T12:17:20.123Z,15.33
2022-11-10T12:20:40.883Z,15.25
2022-11-10T12:23:41.235Z,15.43
2022-11-10T12:26:38.447Z,15.01
2022-11-10T12:29:53.234Z,14.96
2022-11-10T12:32:50.971Z,15.04
2022-11-10T12:35:41.408Z,15.48
2022-11-10T12:38:40.244Z,15.30
2022-11-10T12:41:31.796Z,15.62
2022-11-10T12:44:42.291Z,15.27
2022-11-10T12:47:34.124Z,15.14
2022-11-10T12:50:28.375Z,15.66
2022-11-10T12:53:33.597Z,16.12
2022-11-10T12:56:27.191Z,16.10
2022-11-10T12:59:21.733Z,16.66
2022-11-10T13:02:16.253Z,16.54
2022-11-10T13:05:25.673Z,16.50
2022-11-10T13:08:30.894Z,16.50
2022-11-10T13:11:16.138Z,16.74
2022-11-10T13:14:03.907Z,16.79
2022-11-10T13:16:53.902Z,16.55
2022-11-10T13:19:39.234Z,16.52
2022-11-10T13:22:30.739Z,16.76
2022-11-10T13:25:37.702Z,16.77
2022-11-10T13:28:47.886Z,16.67
2022-11-10T13:31:33.003Z,16.70
2022-11-10T13:34:17.957Z,16.57
2022-11-10T13:37:24.332Z,16.37
2022-11-10T13:40:18.648Z,16.24
2022-11-10T13:43:03.729Z,16.38
2022-11-10T13:45:58.876Z,16.13
2022-11-10T13:48:59.148Z,16.16
2022-11-10T13:51:48.719Z,16.07
2022-11-10T13:54:34.149Z,16.07
2022-11-10T13:57:28.743Z,16.03
2022-11-10T14:00:13.907Z,15.94
2022-11-10T14:03:03.337Z,15.76
2022-11-10T14:06:11.958Z,15.57
2022-11-10T14:09:17.888Z,15.38
2022-11-10T14:12:14.992Z,15.54
2022-11-10T14:15:12.590Z,15.66
2022-11-10T14:17:58.179Z,15.87
2022-11-10T14:20:46.339Z,15.45
2022-11-10T14:23:40.306Z,15.48
2022-11-10T14:26:45.013Z,15.35
2022-11-10T14:29:31.501Z,15.03
2022-11-10T14:32:21.248Z,15.00
2022-11-10T14:35:17.187Z,14.94
2022-11-10T14:38:06.918Z,14.79
2022-11-10T14:41:01.407Z,14.78
2022-11-10T14:44:11.657Z,14.60
2022-11-10T14:47:12.339Z,14.61
2022-11-10T14:50:28.199Z,14.60
2022-11-10T14:53:23.279Z,14.51
2022-11-10T14:56:17.300Z,14.46
2022-11-10T14:59:05.961Z,14.34
2022-11-10T15:02:00.541Z,14.33
2022-11-10T15:04:50.068Z,14.25
2022-11-10T15:07:35.530Z,14.19
2022-11-10T15:10:43.612Z,14.13
2022-11-10T15:13:31.832Z,14.05
2022-11-10T15:16:36.609Z,13.95
2022-11-10T15:19:27.644Z,13.88
2022-11-10T15:22:12.883Z,13.78
2022-11-10T15:25:07.914Z,13.64
2022-11-10T15:27:57.819Z,13.48
2022-11-10T15:30:55.385Z,13.47
2022-11-10T15:33:46.774Z,13.43
2022-11-10T15:36:35.674Z,13.22
2022-11-10T15:39:26.551Z,13.23
2022-11-10T15:42:15.947Z,13.13
2022-11-10T15:45:01.349Z,13.08
2022-11-10T15:47:47.085Z,12.69
2022-11-10T15:50:32.612Z,12.61
2022-11-10T15:53:27.641Z,12.54
2022-11-10T15:56:14.745Z,12.38
2022-11-10T15:59:02.573Z,12.19
2022-11-10T16:01:48.821Z,12.07
2022-11-10T16:04:34.079Z,11.94
2022-11-10T16:07:19.474Z,11.82
2022-11-10T16:10:06.129Z,11.32
2022-11-10T16:12:51.725Z,11.47
2022-11-10T16:15:38.295Z,11.23
2022-11-10T16:18:26.585Z,11.07
2022-11-10T16:21:16.902Z,10.90
2022-11-10T16:24:02.577Z,10.79
2022-11-10T16:26:48.018Z,10.68
2022-11-10T16:29:35.267Z,10.73
2022-11-10T16:32:20.534Z,10.66
2022-11-10T16:35:05.960Z,10.45
2022-11-10T16:37:51.176Z,10.47
2022-11-10T16:40:37.500Z,10.43
2022-11-10T16:43:23.653Z,10.22
2022-11-10T16:46:29.559Z,10.23
2022-11-10T16:49:26.213Z,9.84
2022-11-10T16:52:15.299Z,9.99
2022-11-10T16:55:00.404Z,9.95
2022-11-10T16:57:45.774Z,9.82
2022-11-10T17:00:30.950Z,9.80
2022-11-10T17:03:28.409Z,9.75
2022-11-10T17:06:15.624Z,9.58
2022-11-10T17:09:07.982Z,9.53
2022-11-10T17:11:52.943Z,9.40
2022-11-10T17:14:38.011Z,9.32
2022-11-10T17:17:23.662Z,9.23
2022-11-10T17:20:17.615Z,8.78
2022-11-10T17:23:04.275Z,9.18
2022-11-10T17:25:50.993Z,9.16
2022-11-10T17:28:36.167Z,8.42
2022-11-10T17:31:21.798Z,8.97
2022-11-10T17:34:07.355Z,8.73
2022-11-10T17:36:52.644Z,8.92
2022-11-10T17:39:38.848Z,8.85
2022-11-10T17:42:24.022Z,8.83
2022-11-10T17:45:17.181Z,8.78
2022-11-10T17:48:02.235Z,8.45
2022-11-10T17:50:47.634Z,8.65
2022-11-10T17:53:33.200Z,8.40
2022-11-10T17:56:18.837Z,8.04
2022-11-10T17:59:04.085Z,8.50
2022-11-10T18:01:49.203Z,8.36
2022-11-10T18:04:34.384Z,7.63
2022-11-10T18:07:19.773Z,8.37
2022-11-10T18:10:06.554Z,8.40
2022-11-10T18:12:51.864Z,8.19
2022-11-10T18:15:40.921Z,8.40
2022-11-10T18:18:26.271Z,8.23
2022-11-10T18:21:12.022Z,7.47
2022-11-10T18:23:57.104Z,8.03
2022-11-10T18:26:42.661Z,7.98
2022-11-10T18:29:27.891Z,7.90
2022-11-10T18:32:13.568Z,7.96
2022-11-10T18:34:58.774Z,7.87
2022-11-10T18:37:43.895Z,7.29
2022-11-10T18:40:29.006Z,7.62
2022-11-10T18:43:14.460Z,7.48
2022-11-10T18:45:59.838Z,7.50
2022-11-10T18:48:46.355Z,7.64
2022-11-10T18:51:32.231Z,7.62
2022-11-10T18:54:17.770Z,7.57
2022-11-10T18:57:03.119Z,7.39
2022-11-10T18:59:48.348Z,7.08
2022-11-10T19:02:34.362Z,7.59
2022-11-10T19:05:19.706Z,7.49
2022-11-10T19:08:07.036Z,7.69
2022-11-10T19:10:52.926Z,7.70
2022-11-10T19:13:38.353Z,7.71
2022-11-10T19:16:23.309Z,7.62
2022-11-10T19:19:10.098Z,7.23
2022-11-10T19:21:55.580Z,7.40
2022-11-10T19:25:00.824Z,7.56
2022-11-10T19:27:46.202Z,7.42
2022-11-10T19:30:31.576Z,7.12
2022-11-10T19:33:16.829Z,7.16
2022-11-10T19:36:04.499Z,7.51
2022-11-10T19:38:50.326Z,7.41
2022-11-10T19:41:35.910Z,7.37
2022-11-10T19:44:21.440Z,7.09
2022-11-10T19:47:06.543Z,6.79
2022-11-10T19:49:51.511Z,7.10
2022-11-10T19:52:37.078Z,6.99
2022-11-10T19:55:22.532Z,7.08
2022-11-10T19:58:08.536Z,6.72
2022-11-10T20:00:54.517Z,6.70
2022-11-10T20:03:40.286Z,6.44
2022-11-10T20:06:25.638Z,6.48
2022-11-10T20:09:10.822Z,6.41
2022-11-10T20:11:56.277Z,6.45
2022-11-10T20:14:41.289Z,6.40
2022-11-10T20:17:26.775Z,6.68
2022-11-10T20:20:12.329Z,6.70
2022-11-10T20:23:02.345Z,6.78
2022-11-10T20:25:47.902Z,6.73
2022-11-10T20:28:35.819Z,6.81
2022-11-10T20:31:24.270Z,6.86
2022-11-10T20:34:09.326Z,6.51
2022-11-10T20:36:55.591Z,6.68
2022-11-10T20:39:40.698Z,6.54
2022-11-10T20:42:25.997Z,6.42
2022-11-10T20:45:11.510Z,6.47
2022-11-10T20:47:57.787Z,6.47
2022-11-10T20:50:43.060Z,6.44
2022-11-10T20:53:29.128Z,6.42
2022-11-10T20:56:15.217Z,6.43
2022-11-10T20:59:00.687Z,6.36
2022-11-10T21:01:46.418Z,6.33
2022-11-10T21:04:31.538Z,6.32
2022-11-10T21:07:16.788Z,6.14
2022-11-10T21:10:02.156Z,6.18
2022-11-10T21:12:50.049Z,6.33
2022-11-10T21:15:40.152Z,6.40
2022-11-10T21:18:31.580Z,6.44
2022-11-10T21:21:22.535Z,6.58
2022-11-10T21:24:09.250Z,6.46
2022-11-10T21:26:55.794Z,6.58
2022-11-10T21:29:42.262Z,6.54
2022-11-10T21:32:27.841Z,6.49
2022-11-10T21:35:13.251Z,6.37
2022-11-10T21:37:58.604Z,6.49
2022-11-10T21:40:43.728Z,6.44
2022-11-10T21:43:29.147Z,6.42
2022-11-10T21:46:14.521Z,6.03
2022-11-10T21:49:03.229Z,6.29
2022-11-10T21:51:52.903Z,6.29
2022-11-10T21:54:38.076Z,6.06
2022-11-10T21:57:23.392Z,6.13
2022-11-10T22:00:10.939Z,6.11
2022-11-10T22:03:00.876Z,6.10
2022-11-10T22:05:46.247Z,6.12
2022-11-10T22:08:31.951Z,6.05
2022-11-10T22:11:38.790Z,5.99
2022-11-10T22:14:42.798Z,5.98
2022-11-10T22:17:46.562Z,6.05
2022-11-10T22:20:31.989Z,6.11
2022-11-10T22:23:17.139Z,6.12
2022-11-10T22:26:02.499Z,6.06
2022-11-10T22:28:48.137Z,5.82
2022-11-10T22:31:33.779Z,5.70
2022-11-10T22:34:20.161Z,5.77
2022-11-10T22:37:05.610Z,5.72
2022-11-10T22:40:09.442Z,5.76
2022-11-10T22:43:13.418Z,5.72
2022-11-10T22:45:58.802Z,5.54
2022-11-10T22:48:44.288Z,5.52
2022-11-10T22:51:30.841Z,5.47
2022-11-10T22:54:18.598Z,5.32
2022-11-10T22:57:03.894Z,5.60
2022-11-10T22:59:48.978Z,5.72
2022-11-10T23:02:34.206Z,5.76
2022-11-10T23:05:19.799Z,5.59
2022-11-10T23:08:05.551Z,5.54
2022-11-10T23:11:05.200Z,5.46
2022-11-10T23:13:51.002Z,5.66
2022-11-10T23:16:36.454Z,5.81
2022-11-10T23:19:21.587Z,5.80
2022-11-10T23:22:06.838Z,5.60
2022-11-10T23:24:57.056Z,5.35
2022-11-10T23:27:42.695Z,5.49
2022-11-10T23:30:27.756Z,5.54
2022-11-10T23:33:12.954Z,5.56
2022-11-10T23:35:57.983Z,5.40
2022-11-10T23:38:44.522Z,5.36
2022-11-10T23:41:29.878Z,5.21
2022-11-10T23:44:15.100Z,5.13
2022-11-10T23:47:00.250Z,5.33
2022-11-10T23:49:45.248Z,5.32
2022-11-10T23:52:30.686Z,5.35
2022-11-10T23:55:15.829Z,5.38
2022-11-10T23:58:01.260Z,5.21
